sensor_id;sensor_type;location;lat;lon;timestamp;temperature;humidity
17483;DHT22;8858;52.308;20.994;2022-12-07T00:02:05;2.20;99.90
17483;DHT22;8858;52.308;20.994;2022-12-07T00:04:33;2.10;99.90
17483;DHT22;8858;52.308;20.994;2022-12-07T00:07:03;2.00;99.90
17483;DHT22;8858;52.308;20.994;2022-12-07T00:09:32;2.00;99.90
17483;DHT22;8858;52.308;20.994;2022-12-07T00:12:00;2.20;99.90
17483;DHT22;8858;52.308;20.994;2022-12-07T00:14:29;2.20;99.90
17483;DHT22;8858;52.308;20.994;2022-12-07T00:16:57;2.20;99.90
17483;DHT22;8858;52.308;20.994;2022-12-07T00:19:28;2.20;99.90
17483;DHT22;8858;52.308;20.994;2022-12-07T00:21:59;2.30;99.90
17483;DHT22;8858;52.308;20.994;2022-12-07T00:24:29;2.30;99.90
17483;DHT22;8858;52.308;20.994;2022-12-07T00:26:58;2.30;99.90
17483;DHT22;8858;52.308;20.994;2022-12-07T00:29:26;2.40;99.90
17483;DHT22;8858;52.308;20.994;2022-12-07T00:31:55;2.40;99.90
17483;DHT22;8858;52.308;20.994;2022-12-07T00:34:27;2.50;99.90
17483;DHT22;8858;52.308;20.994;2022-12-07T00:36:55;2.40;99.90
17483;DHT22;8858;52.308;20.994;2022-12-07T00:39:24;2.50;99.90
17483;DHT22;8858;52.308;20.994;2022-12-07T00:41:55;2.50;99.90
17483;DHT22;8858;52.308;20.994;2022-12-07T00:44:23;2.50;99.90
17483;DHT22;8858;52.308;20.994;2022-12-07T00:46:56;2.60;99.90
17483;DHT22;8858;52.308;20.994;2022-12-07T00:49:24;2.60;99.90
17483;DHT22;8858;52.308;20.994;2022-12-07T00:51:53;2.70;99.90
17483;DHT22;8858;52.308;20.994;2022-12-07T00:54:21;2.70;99.90
17483;DHT22;8858;52.308;20.994;2022-12-07T00:56:51;2.70;99.90
17483;DHT22;8858;52.308;20.994;2022-12-07T00:59:24;2.70;99.90
17483;DHT22;8858;52.308;20.994;2022-12-07T01:01:53;2.70;99.90
17483;DHT22;8858;52.308;20.994;2022-12-07T01:04:21;2.70;99.90
17483;DHT22;8858;52.308;20.994;2022-12-07T01:06:50;2.70;99.90
17483;DHT22;8858;52.308;20.994;2022-12-07T01:09:18;2.60;99.90
17483;DHT22;8858;52.308;20.994;2022-12-07T01:11:49;2.50;99.90
17483;DHT22;8858;52.308;20.994;2022-12-07T01:14:17;2.50;99.90
17483;DHT22;8858;52.308;20.994;2022-12-07T01:16:47;2.50;99.90
17483;DHT22;8858;52.308;20.994;2022-12-07T01:19:15;2.40;99.90
17483;DHT22;8858;52.308;20.994;2022-12-07T01:21:47;2.40;99.90
17483;DHT22;8858;52.308;20.994;2022-12-07T01:24:19;2.40;99.90
17483;DHT22;8858;52.308;20.994;2022-12-07T01:26:49;2.40;99.90
17483;DHT22;8858;52.308;20.994;2022-12-07T01:29:17;2.30;99.90
17483;DHT22;8858;52.308;20.994;2022-12-07T01:31:49;2.30;99.90
17483;DHT22;8858;52.308;20.994;2022-12-07T01:34:18;2.30;99.90
17483;DHT22;8858;52.308;20.994;2022-12-07T01:36:47;2.30;99.90
17483;DHT22;8858;52.308;20.994;2022-12-07T01:39:16;2.30;99.90
17483;DHT22;8858;52.308;20.994;2022-12-07T01:41:45;2.30;99.90
17483;DHT22;8858;52.308;20.994;2022-12-07T01:44:20;2.30;99.90
17483;DHT22;8858;52.308;20.994;2022-12-07T01:46:50;2.30;99.90
17483;DHT22;8858;52.308;20.994;2022-12-07T01:49:27;2.30;99.90
17483;DHT22;8858;52.308;20.994;2022-12-07T01:52:04;2.30;99.90
17483;DHT22;8858;52.308;20.994;2022-12-07T01:54:35;2.40;99.90
17483;DHT22;8858;52.308;20.994;2022-12-07T01:57:06;2.40;99.90
17483;DHT22;8858;52.308;20.994;2022-12-07T01:59:36;2.40;99.90
17483;DHT22;8858;52.308;20.994;2022-12-07T02:02:16;2.40;99.90
17483;DHT22;8858;52.308;20.994;2022-12-07T02:04:46;2.40;99.90
17483;DHT22;8858;52.308;20.994;2022-12-07T02:07:15;2.50;99.90
17483;DHT22;8858;52.308;20.994;2022-12-07T02:09:47;2.40;99.90
17483;DHT22;8858;52.308;20.994;2022-12-07T02:12:16;2.50;99.90
17483;DHT22;8858;52.308;20.994;2022-12-07T02:14:44;2.50;99.90
17483;DHT22;8858;52.308;20.994;2022-12-07T02:17:19;2.50;99.90
17483;DHT22;8858;52.308;20.994;2022-12-07T02:20:13;2.50;99.90
17483;DHT22;8858;52.308;20.994;2022-12-07T02:23:11;2.60;99.90
17483;DHT22;8858;52.308;20.994;2022-12-07T02:25:58;2.70;99.90
17483;DHT22;8858;52.308;20.994;2022-12-07T02:28:34;2.70;99.90
17483;DHT22;8858;52.308;20.994;2022-12-07T02:31:09;2.60;99.90
17483;DHT22;8858;52.308;20.994;2022-12-07T02:33:43;2.70;99.90
17483;DHT22;8858;52.308;20.994;2022-12-07T02:36:16;2.60;99.90
17483;DHT22;8858;52.308;20.994;2022-12-07T02:38:49;2.70;99.90
17483;DHT22;8858;52.308;20.994;2022-12-07T02:41:24;2.70;99.90
17483;DHT22;8858;52.308;20.994;2022-12-07T02:43:56;2.60;99.90
17483;DHT22;8858;52.308;20.994;2022-12-07T02:46:32;2.60;99.90
17483;DHT22;8858;52.308;20.994;2022-12-07T02:49:02;2.60;99.90
17483;DHT22;8858;52.308;20.994;2022-12-07T02:51:31;2.50;99.90
17483;DHT22;8858;52.308;20.994;2022-12-07T02:54:00;2.50;99.90
17483;DHT22;8858;52.308;20.994;2022-12-07T02:56:38;2.50;99.90
17483;DHT22;8858;52.308;20.994;2022-12-07T02:59:23;2.50;99.90
17483;DHT22;8858;52.308;20.994;2022-12-07T03:02:06;2.50;99.90
17483;DHT22;8858;52.308;20.994;2022-12-07T03:04:42;2.50;99.90
17483;DHT22;8858;52.308;20.994;2022-12-07T03:07:18;2.50;99.90
17483;DHT22;8858;52.308;20.994;2022-12-07T03:09:59;2.60;99.90
17483;DHT22;8858;52.308;20.994;2022-12-07T03:12:36;2.60;99.90
17483;DHT22;8858;52.308;20.994;2022-12-07T03:15:12;2.60;99.90
17483;DHT22;8858;52.308;20.994;2022-12-07T03:17:44;2.60;99.90
17483;DHT22;8858;52.308;20.994;2022-12-07T03:20:18;2.60;99.90
17483;DHT22;8858;52.308;20.994;2022-12-07T03:22:49;2.60;99.90
17483;DHT22;8858;52.308;20.994;2022-12-07T03:25:19;2.60;99.90
17483;DHT22;8858;52.308;20.994;2022-12-07T03:27:52;2.60;99.90
17483;DHT22;8858;52.308;20.994;2022-12-07T03:30:29;2.70;99.90
17483;DHT22;8858;52.308;20.994;2022-12-07T03:33:08;2.70;99.90
17483;DHT22;8858;52.308;20.994;2022-12-07T03:35:41;2.60;99.90
17483;DHT22;8858;52.308;20.994;2022-12-07T03:38:15;2.60;99.90
17483;DHT22;8858;52.308;20.994;2022-12-07T03:40:48;2.60;99.90
17483;DHT22;8858;52.308;20.994;2022-12-07T03:43:19;2.50;99.90
17483;DHT22;8858;52.308;20.994;2022-12-07T03:46:00;2.50;99.90
17483;DHT22;8858;52.308;20.994;2022-12-07T03:48:37;2.50;99.90
17483;DHT22;8858;52.308;20.994;2022-12-07T03:51:15;2.50;99.90
17483;DHT22;8858;52.308;20.994;2022-12-07T03:53:53;2.40;99.90
17483;DHT22;8858;52.308;20.994;2022-12-07T03:56:23;2.40;99.90
17483;DHT22;8858;52.308;20.994;2022-12-07T03:58:53;2.40;99.90
17483;DHT22;8858;52.308;20.994;2022-12-07T04:01:23;2.40;99.90
17483;DHT22;8858;52.308;20.994;2022-12-07T04:03:53;2.40;99.90
17483;DHT22;8858;52.308;20.994;2022-12-07T04:06:25;2.40;99.90
17483;DHT22;8858;52.308;20.994;2022-12-07T04:08:53;2.50;99.90
17483;DHT22;8858;52.308;20.994;2022-12-07T04:11:21;2.50;99.90
17483;DHT22;8858;52.308;20.994;2022-12-07T04:13:50;2.50;99.90
17483;DHT22;8858;52.308;20.994;2022-12-07T04:16:40;2.50;99.90
17483;DHT22;8858;52.308;20.994;2022-12-07T04:19:14;2.50;99.90
17483;DHT22;8858;52.308;20.994;2022-12-07T04:21:42;2.60;99.90
17483;DHT22;8858;52.308;20.994;2022-12-07T04:24:13;2.60;99.90
17483;DHT22;8858;52.308;20.994;2022-12-07T04:26:42;2.70;99.90
17483;DHT22;8858;52.308;20.994;2022-12-07T04:29:11;2.60;99.90
17483;DHT22;8858;52.308;20.994;2022-12-07T04:31:40;2.60;99.90
17483;DHT22;8858;52.308;20.994;2022-12-07T04:34:10;2.60;99.90
17483;DHT22;8858;52.308;20.994;2022-12-07T04:36:40;2.60;99.90
17483;DHT22;8858;52.308;20.994;2022-12-07T04:39:18;2.60;99.90
17483;DHT22;8858;52.308;20.994;2022-12-07T04:41:47;2.70;99.90
17483;DHT22;8858;52.308;20.994;2022-12-07T04:44:16;2.60;99.90
17483;DHT22;8858;52.308;20.994;2022-12-07T04:46:46;2.60;99.90
17483;DHT22;8858;52.308;20.994;2022-12-07T04:49:18;2.70;99.90
17483;DHT22;8858;52.308;20.994;2022-12-07T04:51:49;2.60;99.90
17483;DHT22;8858;52.308;20.994;2022-12-07T04:54:17;2.60;99.90
17483;DHT22;8858;52.308;20.994;2022-12-07T04:56:46;2.60;99.90
17483;DHT22;8858;52.308;20.994;2022-12-07T04:59:15;2.60;99.90
17483;DHT22;8858;52.308;20.994;2022-12-07T05:01:44;2.60;99.90
17483;DHT22;8858;52.308;20.994;2022-12-07T05:04:12;2.60;99.90
17483;DHT22;8858;52.308;20.994;2022-12-07T05:06:42;2.50;99.90
17483;DHT22;8858;52.308;20.994;2022-12-07T05:09:12;2.60;99.90
17483;DHT22;8858;52.308;20.994;2022-12-07T05:11:42;2.60;99.90
17483;DHT22;8858;52.308;20.994;2022-12-07T05:14:13;2.60;99.90
17483;DHT22;8858;52.308;20.994;2022-12-07T05:16:42;2.60;99.90
17483;DHT22;8858;52.308;20.994;2022-12-07T05:19:11;2.60;99.90
17483;DHT22;8858;52.308;20.994;2022-12-07T05:21:39;2.60;99.90
17483;DHT22;8858;52.308;20.994;2022-12-07T05:24:14;2.60;99.90
17483;DHT22;8858;52.308;20.994;2022-12-07T05:26:43;2.50;99.90
17483;DHT22;8858;52.308;20.994;2022-12-07T05:29:17;2.60;99.90
17483;DHT22;8858;52.308;20.994;2022-12-07T05:31:45;2.60;99.90
17483;DHT22;8858;52.308;20.994;2022-12-07T05:34:13;2.60;99.90
17483;DHT22;8858;52.308;20.994;2022-12-07T05:36:41;2.60;99.90
17483;DHT22;8858;52.308;20.994;2022-12-07T05:39:12;2.70;99.90
17483;DHT22;8858;52.308;20.994;2022-12-07T05:41:44;2.60;99.90
17483;DHT22;8858;52.308;20.994;2022-12-07T05:44:30;2.60;99.90
17483;DHT22;8858;52.308;20.994;2022-12-07T05:46:58;2.60;99.90
17483;DHT22;8858;52.308;20.994;2022-12-07T05:49:26;2.50;99.90
17483;DHT22;8858;52.308;20.994;2022-12-07T05:51:54;2.60;99.90
17483;DHT22;8858;52.308;20.994;2022-12-07T05:54:25;2.60;99.90
17483;DHT22;8858;52.308;20.994;2022-12-07T05:56:55;2.60;99.90
17483;DHT22;8858;52.308;20.994;2022-12-07T05:59:23;2.50;99.90
17483;DHT22;8858;52.308;20.994;2022-12-07T06:01:55;2.50;99.90
17483;DHT22;8858;52.308;20.994;2022-12-07T06:04:30;2.50;99.90
17483;DHT22;8858;52.308;20.994;2022-12-07T06:07:02;2.50;99.90
17483;DHT22;8858;52.308;20.994;2022-12-07T06:09:32;2.40;99.90
17483;DHT22;8858;52.308;20.994;2022-12-07T06:12:02;2.40;99.90
17483;DHT22;8858;52.308;20.994;2022-12-07T06:14:48;2.40;99.90
17483;DHT22;8858;52.308;20.994;2022-12-07T06:17:20;2.40;99.90
17483;DHT22;8858;52.308;20.994;2022-12-07T06:19:49;2.40;99.90
17483;DHT22;8858;52.308;20.994;2022-12-07T06:22:17;2.40;99.90
17483;DHT22;8858;52.308;20.994;2022-12-07T06:24:47;2.40;99.90
17483;DHT22;8858;52.308;20.994;2022-12-07T06:27:15;2.30;99.90
17483;DHT22;8858;52.308;20.994;2022-12-07T06:29:47;2.30;99.90
17483;DHT22;8858;52.308;20.994;2022-12-07T06:32:15;2.30;99.90
17483;DHT22;8858;52.308;20.994;2022-12-07T06:34:44;2.30;99.90
17483;DHT22;8858;52.308;20.994;2022-12-07T06:37:13;2.30;99.90
17483;DHT22;8858;52.308;20.994;2022-12-07T06:39:41;2.30;99.90
17483;DHT22;8858;52.308;20.994;2022-12-07T06:42:14;2.30;99.90
17483;DHT22;8858;52.308;20.994;2022-12-07T06:44:42;2.30;99.90
17483;DHT22;8858;52.308;20.994;2022-12-07T06:47:10;2.20;99.90
17483;DHT22;8858;52.308;20.994;2022-12-07T06:49:59;2.20;99.90
17483;DHT22;8858;52.308;20.994;2022-12-07T06:52:28;2.20;99.90
17483;DHT22;8858;52.308;20.994;2022-12-07T06:54:57;2.20;99.90
17483;DHT22;8858;52.308;20.994;2022-12-07T06:57:27;2.20;99.90
17483;DHT22;8858;52.308;20.994;2022-12-07T06:59:55;2.30;99.90
17483;DHT22;8858;52.308;20.994;2022-12-07T07:02:27;2.30;99.90
17483;DHT22;8858;52.308;20.994;2022-12-07T07:04:57;2.30;99.90
17483;DHT22;8858;52.308;20.994;2022-12-07T07:07:25;2.30;99.90
17483;DHT22;8858;52.308;20.994;2022-12-07T07:09:54;2.30;99.90
17483;DHT22;8858;52.308;20.994;2022-12-07T07:12:22;2.30;99.90
17483;DHT22;8858;52.308;20.994;2022-12-07T07:14:52;2.20;99.90
17483;DHT22;8858;52.308;20.994;2022-12-07T07:17:20;2.20;99.90
17483;DHT22;8858;52.308;20.994;2022-12-07T07:19:49;2.20;99.90
17483;DHT22;8858;52.308;20.994;2022-12-07T07:22:17;2.20;99.90
17483;DHT22;8858;52.308;20.994;2022-12-07T07:24:47;2.20;99.90
17483;DHT22;8858;52.308;20.994;2022-12-07T07:27:15;2.20;99.90
17483;DHT22;8858;52.308;20.994;2022-12-07T07:29:44;2.20;99.90
17483;DHT22;8858;52.308;20.994;2022-12-07T07:32:15;2.20;99.90
17483;DHT22;8858;52.308;20.994;2022-12-07T07:34:43;2.10;99.90
17483;DHT22;8858;52.308;20.994;2022-12-07T07:37:15;2.20;99.90
17483;DHT22;8858;52.308;20.994;2022-12-07T07:39:47;2.10;99.90
17483;DHT22;8858;52.308;20.994;2022-12-07T07:42:16;2.10;99.90
17483;DHT22;8858;52.308;20.994;2022-12-07T07:44:46;2.10;99.90
17483;DHT22;8858;52.308;20.994;2022-12-07T07:47:17;2.10;99.90
17483;DHT22;8858;52.308;20.994;2022-12-07T07:49:45;2.20;99.90
17483;DHT22;8858;52.308;20.994;2022-12-07T07:52:14;2.20;99.90
17483;DHT22;8858;52.308;20.994;2022-12-07T07:54:42;2.20;99.90
17483;DHT22;8858;52.308;20.994;2022-12-07T07:57:11;2.20;99.90
17483;DHT22;8858;52.308;20.994;2022-12-07T07:59:43;2.30;99.90
17483;DHT22;8858;52.308;20.994;2022-12-07T08:02:14;2.30;99.90
17483;DHT22;8858;52.308;20.994;2022-12-07T08:04:48;2.20;99.90
17483;DHT22;8858;52.308;20.994;2022-12-07T08:07:20;2.30;99.90
17483;DHT22;8858;52.308;20.994;2022-12-07T08:09:48;2.30;99.90
17483;DHT22;8858;52.308;20.994;2022-12-07T08:12:16;2.30;99.90
17483;DHT22;8858;52.308;20.994;2022-12-07T08:14:45;2.30;99.90
17483;DHT22;8858;52.308;20.994;2022-12-07T08:17:14;2.40;99.90
17483;DHT22;8858;52.308;20.994;2022-12-07T08:19:47;2.30;99.90
17483;DHT22;8858;52.308;20.994;2022-12-07T08:22:16;2.30;99.90
17483;DHT22;8858;52.308;20.994;2022-12-07T08:24:44;2.20;99.90
17483;DHT22;8858;52.308;20.994;2022-12-07T08:27:12;2.20;99.90
17483;DHT22;8858;52.308;20.994;2022-12-07T08:29:42;2.20;99.90
17483;DHT22;8858;52.308;20.994;2022-12-07T08:32:10;2.10;99.90
17483;DHT22;8858;52.308;20.994;2022-12-07T08:34:38;2.20;99.90
17483;DHT22;8858;52.308;20.994;2022-12-07T08:37:09;2.10;99.90
17483;DHT22;8858;52.308;20.994;2022-12-07T08:39:37;2.20;99.90
17483;DHT22;8858;52.308;20.994;2022-12-07T08:42:09;2.10;99.90
17483;DHT22;8858;52.308;20.994;2022-12-07T08:44:37;2.20;99.90
17483;DHT22;8858;52.308;20.994;2022-12-07T08:47:08;2.20;99.90
17483;DHT22;8858;52.308;20.994;2022-12-07T08:49:40;2.30;99.90
17483;DHT22;8858;52.308;20.994;2022-12-07T08:52:11;2.20;99.90
17483;DHT22;8858;52.308;20.994;2022-12-07T08:54:40;2.20;99.90
17483;DHT22;8858;52.308;20.994;2022-12-07T08:57:09;2.20;99.90
17483;DHT22;8858;52.308;20.994;2022-12-07T08:59:38;2.30;99.90
17483;DHT22;8858;52.308;20.994;2022-12-07T09:02:06;2.30;99.90
17483;DHT22;8858;52.308;20.994;2022-12-07T09:04:35;2.30;99.90
17483;DHT22;8858;52.308;20.994;2022-12-07T09:07:07;2.30;99.90
17483;DHT22;8858;52.308;20.994;2022-12-07T09:09:36;2.30;99.90
17483;DHT22;8858;52.308;20.994;2022-12-07T09:12:05;2.40;99.90
17483;DHT22;8858;52.308;20.994;2022-12-07T09:14:34;2.40;99.90
17483;DHT22;8858;52.308;20.994;2022-12-07T09:17:06;2.50;99.90
17483;DHT22;8858;52.308;20.994;2022-12-07T09:19:35;2.50;99.90
17483;DHT22;8858;52.308;20.994;2022-12-07T09:22:04;2.50;99.90
17483;DHT22;8858;52.308;20.994;2022-12-07T09:24:33;2.50;99.90
17483;DHT22;8858;52.308;20.994;2022-12-07T09:27:03;2.50;99.90
17483;DHT22;8858;52.308;20.994;2022-12-07T09:29:31;2.50;99.90
17483;DHT22;8858;52.308;20.994;2022-12-07T09:32:02;2.60;99.90
17483;DHT22;8858;52.308;20.994;2022-12-07T09:34:37;2.60;99.90
17483;DHT22;8858;52.308;20.994;2022-12-07T09:37:09;2.70;99.90
17483;DHT22;8858;52.308;20.994;2022-12-07T09:39:38;2.70;99.90
17483;DHT22;8858;52.308;20.994;2022-12-07T09:42:27;2.70;99.90
17483;DHT22;8858;52.308;20.994;2022-12-07T09:44:58;2.80;99.90
17483;DHT22;8858;52.308;20.994;2022-12-07T09:47:30;2.80;99.90
17483;DHT22;8858;52.308;20.994;2022-12-07T09:50:10;2.80;99.90
17483;DHT22;8858;52.308;20.994;2022-12-07T09:52:42;2.80;99.90
17483;DHT22;8858;52.308;20.994;2022-12-07T09:55:13;2.80;99.90
17483;DHT22;8858;52.308;20.994;2022-12-07T09:57:46;2.80;99.90
17483;DHT22;8858;52.308;20.994;2022-12-07T10:00:20;2.90;99.90
17483;DHT22;8858;52.308;20.994;2022-12-07T10:02:55;3.00;99.90
17483;DHT22;8858;52.308;20.994;2022-12-07T10:05:28;3.00;99.90
17483;DHT22;8858;52.308;20.994;2022-12-07T10:07:59;3.00;99.90
17483;DHT22;8858;52.308;20.994;2022-12-07T10:10:32;3.00;99.90
17483;DHT22;8858;52.308;20.994;2022-12-07T10:13:09;3.00;99.90
17483;DHT22;8858;52.308;20.994;2022-12-07T10:15:44;2.90;99.90
17483;DHT22;8858;52.308;20.994;2022-12-07T10:18:28;3.00;99.90
17483;DHT22;8858;52.308;20.994;2022-12-07T10:21:12;3.10;99.90
17483;DHT22;8858;52.308;20.994;2022-12-07T10:23:59;3.10;99.90
17483;DHT22;8858;52.308;20.994;2022-12-07T10:26:33;3.00;99.90
17483;DHT22;8858;52.308;20.994;2022-12-07T10:29:14;3.10;99.90
17483;DHT22;8858;52.308;20.994;2022-12-07T10:31:43;3.10;99.90
17483;DHT22;8858;52.308;20.994;2022-12-07T10:34:21;3.10;99.90
17483;DHT22;8858;52.308;20.994;2022-12-07T10:37:17;3.00;99.90
17483;DHT22;8858;52.308;20.994;2022-12-07T10:39:48;3.10;99.90
17483;DHT22;8858;52.308;20.994;2022-12-07T10:42:18;3.10;99.90
17483;DHT22;8858;52.308;20.994;2022-12-07T10:44:50;3.10;99.90
17483;DHT22;8858;52.308;20.994;2022-12-07T10:47:25;3.10;99.90
17483;DHT22;8858;52.308;20.994;2022-12-07T10:50:17;3.00;99.90
17483;DHT22;8858;52.308;20.994;2022-12-07T10:53:01;3.10;99.90
17483;DHT22;8858;52.308;20.994;2022-12-07T10:55:46;3.20;99.90
17483;DHT22;8858;52.308;20.994;2022-12-07T10:58:36;3.30;99.90
17483;DHT22;8858;52.308;20.994;2022-12-07T11:01:18;3.30;99.90
17483;DHT22;8858;52.308;20.994;2022-12-07T11:03:58;3.40;99.90
17483;DHT22;8858;52.308;20.994;2022-12-07T11:06:35;3.30;99.90
17483;DHT22;8858;52.308;20.994;2022-12-07T11:09:28;3.40;99.90
17483;DHT22;8858;52.308;20.994;2022-12-07T11:12:29;3.40;99.90
17483;DHT22;8858;52.308;20.994;2022-12-07T11:15:11;3.40;99.90
17483;DHT22;8858;52.308;20.994;2022-12-07T11:17:48;3.30;99.90
17483;DHT22;8858;52.308;20.994;2022-12-07T11:20:35;3.40;99.90
17483;DHT22;8858;52.308;20.994;2022-12-07T11:23:18;3.40;99.90
17483;DHT22;8858;52.308;20.994;2022-12-07T11:25:57;3.40;99.90
17483;DHT22;8858;52.308;20.994;2022-12-07T11:28:40;3.30;99.90
17483;DHT22;8858;52.308;20.994;2022-12-07T11:31:21;3.30;99.90
17483;DHT22;8858;52.308;20.994;2022-12-07T11:34:02;3.40;99.90
17483;DHT22;8858;52.308;20.994;2022-12-07T11:36:37;3.40;99.90
17483;DHT22;8858;52.308;20.994;2022-12-07T11:39:15;3.40;99.90
17483;DHT22;8858;52.308;20.994;2022-12-07T11:41:54;3.40;99.90
17483;DHT22;8858;52.308;20.994;2022-12-07T11:44:31;3.30;99.90
17483;DHT22;8858;52.308;20.994;2022-12-07T11:47:06;3.30;99.90
17483;DHT22;8858;52.308;20.994;2022-12-07T11:49:45;3.40;99.90
17483;DHT22;8858;52.308;20.994;2022-12-07T11:52:22;3.40;99.90
17483;DHT22;8858;52.308;20.994;2022-12-07T11:54:52;3.40;99.90
17483;DHT22;8858;52.308;20.994;2022-12-07T11:57:26;3.40;99.90
17483;DHT22;8858;52.308;20.994;2022-12-07T12:00:00;3.30;99.90
17483;DHT22;8858;52.308;20.994;2022-12-07T12:02:34;3.40;99.90
17483;DHT22;8858;52.308;20.994;2022-12-07T12:05:13;3.40;99.90
17483;DHT22;8858;52.308;20.994;2022-12-07T12:07:44;3.50;99.90
17483;DHT22;8858;52.308;20.994;2022-12-07T12:10:44;3.50;99.90
17483;DHT22;8858;52.308;20.994;2022-12-07T12:13:39;3.50;99.90
17483;DHT22;8858;52.308;20.994;2022-12-07T12:16:52;3.60;99.90
17483;DHT22;8858;52.308;20.994;2022-12-07T12:19:30;3.70;99.90
17483;DHT22;8858;52.308;20.994;2022-12-07T12:22:10;3.70;99.90
17483;DHT22;8858;52.308;20.994;2022-12-07T12:24:45;3.70;99.90
17483;DHT22;8858;52.308;20.994;2022-12-07T12:27:21;3.80;99.90
17483;DHT22;8858;52.308;20.994;2022-12-07T12:29:54;3.80;99.90
17483;DHT22;8858;52.308;20.994;2022-12-07T12:32:35;3.70;99.90
17483;DHT22;8858;52.308;20.994;2022-12-07T12:35:28;3.60;99.90
17483;DHT22;8858;52.308;20.994;2022-12-07T12:38:27;3.60;99.90
17483;DHT22;8858;52.308;20.994;2022-12-07T12:40:58;3.60;99.90
17483;DHT22;8858;52.308;20.994;2022-12-07T12:43:44;3.70;99.90
17483;DHT22;8858;52.308;20.994;2022-12-07T12:46:50;3.70;99.90
17483;DHT22;8858;52.308;20.994;2022-12-07T12:49:54;3.60;99.90
17483;DHT22;8858;52.308;20.994;2022-12-07T12:59:16;3.60;99.90
17483;DHT22;8858;52.308;20.994;2022-12-07T13:01:48;3.60;99.90
17483;DHT22;8858;52.308;20.994;2022-12-07T13:04:30;3.50;99.90
17483;DHT22;8858;52.308;20.994;2022-12-07T13:07:02;3.50;99.90
17483;DHT22;8858;52.308;20.994;2022-12-07T13:09:33;3.50;99.90
17483;DHT22;8858;52.308;20.994;2022-12-07T13:12:12;3.50;99.90
17483;DHT22;8858;52.308;20.994;2022-12-07T13:14:55;3.50;99.90
17483;DHT22;8858;52.308;20.994;2022-12-07T13:17:59;3.50;99.90
17483;DHT22;8858;52.308;20.994;2022-12-07T13:20:44;3.50;99.90
17483;DHT22;8858;52.308;20.994;2022-12-07T13:23:18;3.50;99.90
17483;DHT22;8858;52.308;20.994;2022-12-07T13:25:55;3.50;99.90
17483;DHT22;8858;52.308;20.994;2022-12-07T13:28:33;3.50;99.90
17483;DHT22;8858;52.308;20.994;2022-12-07T13:31:21;3.40;99.90
17483;DHT22;8858;52.308;20.994;2022-12-07T13:33:51;3.40;99.90
17483;DHT22;8858;52.308;20.994;2022-12-07T13:36:22;3.40;99.90
17483;DHT22;8858;52.308;20.994;2022-12-07T13:38:54;3.30;99.90
17483;DHT22;8858;52.308;20.994;2022-12-07T13:41:26;3.30;99.90
17483;DHT22;8858;52.308;20.994;2022-12-07T13:44:02;3.30;99.90
17483;DHT22;8858;52.308;20.994;2022-12-07T13:46:43;3.20;99.90
17483;DHT22;8858;52.308;20.994;2022-12-07T13:49:18;3.20;99.90
17483;DHT22;8858;52.308;20.994;2022-12-07T13:51:48;3.20;99.90
17483;DHT22;8858;52.308;20.994;2022-12-07T13:54:18;3.20;99.90
17483;DHT22;8858;52.308;20.994;2022-12-07T13:56:50;3.10;99.90
17483;DHT22;8858;52.308;20.994;2022-12-07T13:59:22;3.20;99.90
17483;DHT22;8858;52.308;20.994;2022-12-07T14:01:53;3.20;99.90
17483;DHT22;8858;52.308;20.994;2022-12-07T14:04:32;3.20;99.90
17483;DHT22;8858;52.308;20.994;2022-12-07T14:07:18;3.10;99.90
17483;DHT22;8858;52.308;20.994;2022-12-07T14:09:56;3.10;99.90
17483;DHT22;8858;52.308;20.994;2022-12-07T14:12:25;3.10;99.90
17483;DHT22;8858;52.308;20.994;2022-12-07T14:14:55;3.10;99.90
17483;DHT22;8858;52.308;20.994;2022-12-07T14:17:27;3.00;99.90
17483;DHT22;8858;52.308;20.994;2022-12-07T14:19:56;3.00;99.90
17483;DHT22;8858;52.308;20.994;2022-12-07T14:22:31;3.00;99.90
17483;DHT22;8858;52.308;20.994;2022-12-07T14:25:15;3.00;99.90
17483;DHT22;8858;52.308;20.994;2022-12-07T14:27:50;3.00;99.90
17483;DHT22;8858;52.308;20.994;2022-12-07T14:30:21;2.90;99.90
17483;DHT22;8858;52.308;20.994;2022-12-07T14:32:53;2.90;99.90
17483;DHT22;8858;52.308;20.994;2022-12-07T14:35:22;2.90;99.90
17483;DHT22;8858;52.308;20.994;2022-12-07T14:37:53;2.90;99.90
17483;DHT22;8858;52.308;20.994;2022-12-07T14:40:26;2.80;99.90
17483;DHT22;8858;52.308;20.994;2022-12-07T14:43:01;2.80;99.90
17483;DHT22;8858;52.308;20.994;2022-12-07T14:45:31;2.70;99.90
17483;DHT22;8858;52.308;20.994;2022-12-07T14:48:01;2.70;99.90
17483;DHT22;8858;52.308;20.994;2022-12-07T14:50:52;2.70;99.90
17483;DHT22;8858;52.308;20.994;2022-12-07T14:53:44;2.70;99.90
17483;DHT22;8858;52.308;20.994;2022-12-07T14:56:21;2.70;99.90
17483;DHT22;8858;52.308;20.994;2022-12-07T14:58:50;2.60;99.90
17483;DHT22;8858;52.308;20.994;2022-12-07T15:01:18;2.60;99.90
17483;DHT22;8858;52.308;20.994;2022-12-07T15:03:49;2.50;99.90
17483;DHT22;8858;52.308;20.994;2022-12-07T15:06:18;2.50;99.90
17483;DHT22;8858;52.308;20.994;2022-12-07T15:08:46;2.50;99.90
17483;DHT22;8858;52.308;20.994;2022-12-07T15:11:16;2.40;99.90
17483;DHT22;8858;52.308;20.994;2022-12-07T15:13:48;2.40;99.90
17483;DHT22;8858;52.308;20.994;2022-12-07T15:16:35;2.30;99.90
17483;DHT22;8858;52.308;20.994;2022-12-07T15:19:25;2.30;99.90
17483;DHT22;8858;52.308;20.994;2022-12-07T15:21:56;2.30;99.90
17483;DHT22;8858;52.308;20.994;2022-12-07T15:24:27;2.30;99.90
17483;DHT22;8858;52.308;20.994;2022-12-07T15:26:55;2.30;99.90
17483;DHT22;8858;52.308;20.994;2022-12-07T15:29:23;2.30;99.90
17483;DHT22;8858;52.308;20.994;2022-12-07T15:31:52;2.30;99.90
17483;DHT22;8858;52.308;20.994;2022-12-07T15:34:28;2.30;99.90
17483;DHT22;8858;52.308;20.994;2022-12-07T15:37:06;2.20;99.90
17483;DHT22;8858;52.308;20.994;2022-12-07T15:39:36;2.20;99.90
17483;DHT22;8858;52.308;20.994;2022-12-07T15:42:05;2.30;99.90
17483;DHT22;8858;52.308;20.994;2022-12-07T15:44:33;2.30;99.90
17483;DHT22;8858;52.308;20.994;2022-12-07T15:47:19;2.40;99.90
17483;DHT22;8858;52.308;20.994;2022-12-07T15:49:48;2.40;99.90
17483;DHT22;8858;52.308;20.994;2022-12-07T15:52:17;2.40;99.90
17483;DHT22;8858;52.308;20.994;2022-12-07T15:54:46;2.50;99.90
17483;DHT22;8858;52.308;20.994;2022-12-07T15:57:15;2.40;99.90
17483;DHT22;8858;52.308;20.994;2022-12-07T15:59:50;2.40;99.90
17483;DHT22;8858;52.308;20.994;2022-12-07T16:02:18;2.40;99.90
17483;DHT22;8858;52.308;20.994;2022-12-07T16:04:48;2.50;99.90
17483;DHT22;8858;52.308;20.994;2022-12-07T16:07:19;2.50;99.90
17483;DHT22;8858;52.308;20.994;2022-12-07T16:09:47;2.50;99.90
17483;DHT22;8858;52.308;20.994;2022-12-07T16:12:16;2.60;99.90
17483;DHT22;8858;52.308;20.994;2022-12-07T16:14:44;2.60;99.90
17483;DHT22;8858;52.308;20.994;2022-12-07T16:17:14;2.60;99.90
17483;DHT22;8858;52.308;20.994;2022-12-07T16:19:42;2.50;99.90
17483;DHT22;8858;52.308;20.994;2022-12-07T16:22:12;2.50;99.90
17483;DHT22;8858;52.308;20.994;2022-12-07T16:24:42;2.50;99.90
17483;DHT22;8858;52.308;20.994;2022-12-07T16:27:14;2.60;99.90
17483;DHT22;8858;52.308;20.994;2022-12-07T16:29:42;2.60;99.90
17483;DHT22;8858;52.308;20.994;2022-12-07T16:32:10;2.60;99.90